sensor_id;sensor_type;location;lat;lon;timestamp;P1;durP1;ratioP1;P2;durP2;ratioP2
47113;SDS011;32867;51.556;6.832;2023-09-19T00:04:01;11.70;;;3.42;;
47113;SDS011;32867;51.556;6.832;2023-09-19T00:09:03;16.95;;;3.45;;
47113;SDS011;32867;51.556;6.832;2023-09-19T00:14:04;16.60;;;3.67;;
47113;SDS011;32867;51.556;6.832;2023-09-19T00:19:08;14.27;;;4.60;;
47113;SDS011;32867;51.556;6.832;2023-09-19T00:24:09;22.48;;;3.83;;
47113;SDS011;32867;51.556;6.832;2023-09-19T00:29:12;11.27;;;3.35;;
47113;SDS011;32867;51.556;6.832;2023-09-19T00:34:16;13.75;;;3.80;;
47113;SDS011;32867;51.556;6.832;2023-09-19T00:39:17;11.88;;;4.05;;
47113;SDS011;32867;51.556;6.832;2023-09-19T00:44:20;12.38;;;4.10;;
47113;SDS011;32867;51.556;6.832;2023-09-19T00:49:24;12.40;;;3.35;;
47113;SDS011;32867;51.556;6.832;2023-09-19T00:54:25;13.55;;;3.80;;
47113;SDS011;32867;51.556;6.832;2023-09-19T00:59:28;15.77;;;4.03;;
47113;SDS011;32867;51.556;6.832;2023-09-19T01:04:31;16.35;;;4.05;;
47113;SDS011;32867;51.556;6.832;2023-09-19T01:09:32;13.02;;;3.40;;
47113;SDS011;32867;51.556;6.832;2023-09-19T01:14:41;15.13;;;3.75;;
47113;SDS011;32867;51.556;6.832;2023-09-19T01:30:35;16.23;;;3.63;;
47113;SDS011;32867;51.556;6.832;2023-09-19T01:35:39;12.13;;;2.80;;
47113;SDS011;32867;51.556;6.832;2023-09-19T01:40:41;10.25;;;3.33;;
47113;SDS011;32867;51.556;6.832;2023-09-19T01:51:07;17.98;;;3.95;;
47113;SDS011;32867;51.556;6.832;2023-09-19T01:56:12;13.20;;;3.40;;
47113;SDS011;32867;51.556;6.832;2023-09-19T02:01:22;14.13;;;3.58;;
47113;SDS011;32867;51.556;6.832;2023-09-19T02:06:25;16.73;;;3.15;;
47113;SDS011;32867;51.556;6.832;2023-09-19T02:11:25;12.90;;;3.30;;
47113;SDS011;32867;51.556;6.832;2023-09-19T02:16:26;12.40;;;3.08;;
47113;SDS011;32867;51.556;6.832;2023-09-19T02:21:28;14.90;;;3.60;;
47113;SDS011;32867;51.556;6.832;2023-09-19T02:26:29;14.48;;;3.08;;
47113;SDS011;32867;51.556;6.832;2023-09-19T02:31:30;16.15;;;3.30;;
47113;SDS011;32867;51.556;6.832;2023-09-19T02:36:31;14.60;;;3.50;;
47113;SDS011;32867;51.556;6.832;2023-09-19T02:41:32;13.82;;;3.20;;
47113;SDS011;32867;51.556;6.832;2023-09-19T02:46:33;14.90;;;3.10;;
47113;SDS011;32867;51.556;6.832;2023-09-19T02:51:36;14.60;;;3.50;;
47113;SDS011;32867;51.556;6.832;2023-09-19T02:56:37;15.55;;;3.30;;
47113;SDS011;32867;51.556;6.832;2023-09-19T03:01:38;14.68;;;3.80;;
47113;SDS011;32867;51.556;6.832;2023-09-19T03:06:39;14.15;;;2.80;;
47113;SDS011;32867;51.556;6.832;2023-09-19T03:11:40;10.15;;;2.63;;
47113;SDS011;32867;51.556;6.832;2023-09-19T03:16:42;11.35;;;2.85;;
47113;SDS011;32867;51.556;6.832;2023-09-19T03:21:45;13.25;;;3.65;;
47113;SDS011;32867;51.556;6.832;2023-09-19T03:26:46;10.25;;;2.83;;
47113;SDS011;32867;51.556;6.832;2023-09-19T03:31:48;11.57;;;2.67;;
47113;SDS011;32867;51.556;6.832;2023-09-19T03:36:49;11.02;;;3.10;;
47113;SDS011;32867;51.556;6.832;2023-09-19T03:41:50;14.15;;;3.40;;
47113;SDS011;32867;51.556;6.832;2023-09-19T03:46:51;12.65;;;3.00;;
47113;SDS011;32867;51.556;6.832;2023-09-19T03:51:52;13.18;;;2.97;;
47113;SDS011;32867;51.556;6.832;2023-09-19T03:56:53;12.88;;;3.20;;
47113;SDS011;32867;51.556;6.832;2023-09-19T04:01:54;14.25;;;3.65;;
47113;SDS011;32867;51.556;6.832;2023-09-19T04:06:57;11.60;;;3.00;;
47113;SDS011;32867;51.556;6.832;2023-09-19T04:11:58;14.02;;;3.78;;
47113;SDS011;32867;51.556;6.832;2023-09-19T04:16:59;9.10;;;3.28;;
47113;SDS011;32867;51.556;6.832;2023-09-19T04:22:00;11.40;;;4.00;;
47113;SDS011;32867;51.556;6.832;2023-09-19T04:27:01;18.02;;;3.90;;
47113;SDS011;32867;51.556;6.832;2023-09-19T04:32:03;16.60;;;3.58;;
47113;SDS011;32867;51.556;6.832;2023-09-19T04:37:04;10.85;;;2.72;;
47113;SDS011;32867;51.556;6.832;2023-09-19T04:42:05;11.73;;;3.65;;
47113;SDS011;32867;51.556;6.832;2023-09-19T04:47:06;13.05;;;3.95;;
47113;SDS011;32867;51.556;6.832;2023-09-19T04:52:06;9.40;;;3.28;;
47113;SDS011;32867;51.556;6.832;2023-09-19T04:57:07;14.85;;;4.28;;
47113;SDS011;32867;51.556;6.832;2023-09-19T05:02:08;9.27;;;3.10;;
47113;SDS011;32867;51.556;6.832;2023-09-19T05:07:08;12.48;;;3.05;;
47113;SDS011;32867;51.556;6.832;2023-09-19T05:12:10;8.68;;;3.05;;
47113;SDS011;32867;51.556;6.832;2023-09-19T05:17:11;17.10;;;3.63;;
47113;SDS011;32867;51.556;6.832;2023-09-19T05:22:13;13.45;;;3.83;;
47113;SDS011;32867;51.556;6.832;2023-09-19T05:27:14;20.40;;;5.43;;
47113;SDS011;32867;51.556;6.832;2023-09-19T05:32:17;18.48;;;3.83;;
47113;SDS011;32867;51.556;6.832;2023-09-19T05:37:19;16.10;;;4.38;;
47113;SDS011;32867;51.556;6.832;2023-09-19T05:42:20;15.82;;;4.15;;
47113;SDS011;32867;51.556;6.832;2023-09-19T05:47:21;16.23;;;3.88;;
47113;SDS011;32867;51.556;6.832;2023-09-19T05:52:22;18.95;;;5.07;;
47113;SDS011;32867;51.556;6.832;2023-09-19T05:57:23;16.13;;;3.88;;
47113;SDS011;32867;51.556;6.832;2023-09-19T06:02:24;12.85;;;4.20;;
47113;SDS011;32867;51.556;6.832;2023-09-19T06:07:30;16.08;;;3.42;;
47113;SDS011;32867;51.556;6.832;2023-09-19T06:12:39;14.87;;;4.13;;
47113;SDS011;32867;51.556;6.832;2023-09-19T06:17:47;16.48;;;3.75;;
47113;SDS011;32867;51.556;6.832;2023-09-19T06:22:49;17.60;;;4.50;;
47113;SDS011;32867;51.556;6.832;2023-09-19T06:27:51;14.63;;;3.67;;
47113;SDS011;32867;51.556;6.832;2023-09-19T06:32:57;12.85;;;4.20;;
47113;SDS011;32867;51.556;6.832;2023-09-19T06:37:58;13.88;;;3.88;;
47113;SDS011;32867;51.556;6.832;2023-09-19T06:43:03;15.57;;;4.10;;
47113;SDS011;32867;51.556;6.832;2023-09-19T06:48:05;13.93;;;3.92;;
47113;SDS011;32867;51.556;6.832;2023-09-19T06:53:06;12.23;;;3.60;;
47113;SDS011;32867;51.556;6.832;2023-09-19T06:58:07;15.80;;;4.40;;
47113;SDS011;32867;51.556;6.832;2023-09-19T07:03:08;12.27;;;3.58;;
47113;SDS011;32867;51.556;6.832;2023-09-19T07:08:11;14.05;;;3.63;;
47113;SDS011;32867;51.556;6.832;2023-09-19T07:13:12;21.45;;;4.13;;
47113;SDS011;32867;51.556;6.832;2023-09-19T07:18:13;12.30;;;3.83;;
47113;SDS011;32867;51.556;6.832;2023-09-19T07:23:19;13.88;;;4.35;;
47113;SDS011;32867;51.556;6.832;2023-09-19T07:28:22;13.40;;;4.60;;
47113;SDS011;32867;51.556;6.832;2023-09-19T07:33:23;16.10;;;4.18;;
47113;SDS011;32867;51.556;6.832;2023-09-19T07:38:26;16.75;;;4.10;;
47113;SDS011;32867;51.556;6.832;2023-09-19T07:43:27;18.60;;;4.53;;
47113;SDS011;32867;51.556;6.832;2023-09-19T07:48:28;15.77;;;3.75;;
47113;SDS011;32867;51.556;6.832;2023-09-19T07:53:28;12.73;;;4.25;;
47113;SDS011;32867;51.556;6.832;2023-09-19T07:58:30;20.20;;;4.88;;
47113;SDS011;32867;51.556;6.832;2023-09-19T08:03:31;19.15;;;5.20;;
47113;SDS011;32867;51.556;6.832;2023-09-19T08:08:32;16.75;;;4.00;;
47113;SDS011;32867;51.556;6.832;2023-09-19T08:13:41;15.70;;;3.70;;
47113;SDS011;32867;51.556;6.832;2023-09-19T08:18:47;19.13;;;4.50;;
47113;SDS011;32867;51.556;6.832;2023-09-19T08:23:48;19.50;;;5.72;;
47113;SDS011;32867;51.556;6.832;2023-09-19T08:28:48;12.82;;;3.85;;
47113;SDS011;32867;51.556;6.832;2023-09-19T08:33:51;19.88;;;4.25;;
47113;SDS011;32867;51.556;6.832;2023-09-19T08:38:53;22.80;;;4.10;;
47113;SDS011;32867;51.556;6.832;2023-09-19T08:43:53;17.23;;;4.18;;
47113;SDS011;32867;51.556;6.832;2023-09-19T08:48:58;12.68;;;3.60;;
47113;SDS011;32867;51.556;6.832;2023-09-19T08:54:08;13.90;;;4.20;;
47113;SDS011;32867;51.556;6.832;2023-09-19T08:59:13;13.40;;;3.20;;
47113;SDS011;32867;51.556;6.832;2023-09-19T09:04:15;13.73;;;3.33;;
47113;SDS011;32867;51.556;6.832;2023-09-19T09:09:16;8.77;;;2.67;;
47113;SDS011;32867;51.556;6.832;2023-09-19T09:14:19;18.73;;;3.90;;
47113;SDS011;32867;51.556;6.832;2023-09-19T09:19:21;13.70;;;3.53;;
47113;SDS011;32867;51.556;6.832;2023-09-19T09:24:31;13.60;;;4.00;;
47113;SDS011;32867;51.556;6.832;2023-09-19T09:29:41;14.32;;;3.25;;
47113;SDS011;32867;51.556;6.832;2023-09-19T09:34:55;12.60;;;3.80;;
47113;SDS011;32867;51.556;6.832;2023-09-19T09:40:01;13.90;;;3.30;;
47113;SDS011;32867;51.556;6.832;2023-09-19T09:45:28;21.40;;;4.93;;
47113;SDS011;32867;51.556;6.832;2023-09-19T09:50:35;12.23;;;3.50;;
47113;SDS011;32867;51.556;6.832;2023-09-19T09:56:00;10.20;;;3.67;;
47113;SDS011;32867;51.556;6.832;2023-09-19T10:01:09;20.70;;;4.72;;
47113;SDS011;32867;51.556;6.832;2023-09-19T10:06:12;10.73;;;2.80;;
47113;SDS011;32867;51.556;6.832;2023-09-19T10:11:25;17.85;;;3.85;;
47113;SDS011;32867;51.556;6.832;2023-09-19T10:16:30;12.57;;;3.55;;
47113;SDS011;32867;51.556;6.832;2023-09-19T10:21:32;14.57;;;3.65;;
47113;SDS011;32867;51.556;6.832;2023-09-19T10:26:36;13.20;;;3.03;;
47113;SDS011;32867;51.556;6.832;2023-09-19T10:31:39;16.23;;;4.05;;
47113;SDS011;32867;51.556;6.832;2023-09-19T10:36:47;10.65;;;3.10;;
47113;SDS011;32867;51.556;6.832;2023-09-19T10:41:52;10.05;;;2.70;;
47113;SDS011;32867;51.556;6.832;2023-09-19T10:46:58;9.40;;;2.85;;
47113;SDS011;32867;51.556;6.832;2023-09-19T10:51:59;14.95;;;3.78;;
47113;SDS011;32867;51.556;6.832;2023-09-19T10:57:02;10.13;;;2.95;;
47113;SDS011;32867;51.556;6.832;2023-09-19T11:02:17;6.80;;;2.53;;
47113;SDS011;32867;51.556;6.832;2023-09-19T11:07:18;11.30;;;3.00;;
47113;SDS011;32867;51.556;6.832;2023-09-19T11:17:36;12.98;;;3.10;;
47113;SDS011;32867;51.556;6.832;2023-09-19T11:43:51;11.23;;;3.08;;
47113;SDS011;32867;51.556;6.832;2023-09-19T11:48:54;10.60;;;2.80;;
47113;SDS011;32867;51.556;6.832;2023-09-19T11:54:13;10.75;;;2.90;;
47113;SDS011;32867;51.556;6.832;2023-09-19T11:59:21;9.68;;;2.75;;
47113;SDS011;32867;51.556;6.832;2023-09-19T12:04:35;10.18;;;3.13;;
47113;SDS011;32867;51.556;6.832;2023-09-19T12:09:38;9.10;;;3.17;;
47113;SDS011;32867;51.556;6.832;2023-09-19T12:14:50;9.55;;;2.83;;
47113;SDS011;32867;51.556;6.832;2023-09-19T12:19:55;9.13;;;2.42;;
47113;SDS011;32867;51.556;6.832;2023-09-19T12:25:05;6.75;;;2.45;;
47113;SDS011;32867;51.556;6.832;2023-09-19T12:30:07;8.38;;;2.58;;
47113;SDS011;32867;51.556;6.832;2023-09-19T12:35:09;6.30;;;2.38;;
47113;SDS011;32867;51.556;6.832;2023-09-19T12:40:21;9.48;;;2.35;;
47113;SDS011;32867;51.556;6.832;2023-09-19T12:45:23;11.00;;;2.83;;
47113;SDS011;32867;51.556;6.832;2023-09-19T12:50:24;6.65;;;2.22;;
47113;SDS011;32867;51.556;6.832;2023-09-19T12:55:29;7.78;;;2.28;;
47113;SDS011;32867;51.556;6.832;2023-09-19T13:00:42;6.95;;;2.38;;
47113;SDS011;32867;51.556;6.832;2023-09-19T13:05:52;9.48;;;2.70;;
47113;SDS011;32867;51.556;6.832;2023-09-19T13:11:08;10.95;;;2.60;;
47113;SDS011;32867;51.556;6.832;2023-09-19T13:16:12;10.32;;;2.45;;
47113;SDS011;32867;51.556;6.832;2023-09-19T13:21:27;7.65;;;2.70;;
47113;SDS011;32867;51.556;6.832;2023-09-19T13:26:28;6.80;;;2.00;;
47113;SDS011;32867;51.556;6.832;2023-09-19T13:31:29;5.75;;;2.05;;
47113;SDS011;32867;51.556;6.832;2023-09-19T13:36:29;7.82;;;2.33;;
47113;SDS011;32867;51.556;6.832;2023-09-19T13:41:30;5.28;;;1.60;;
47113;SDS011;32867;51.556;6.832;2023-09-19T13:46:32;5.75;;;1.63;;
47113;SDS011;32867;51.556;6.832;2023-09-19T13:51:35;7.65;;;2.47;;
47113;SDS011;32867;51.556;6.832;2023-09-19T13:56:35;10.10;;;2.20;;
47113;SDS011;32867;51.556;6.832;2023-09-19T14:01:37;6.07;;;2.20;;
47113;SDS011;32867;51.556;6.832;2023-09-19T14:06:41;5.57;;;1.83;;
47113;SDS011;32867;51.556;6.832;2023-09-19T14:11:42;4.05;;;1.55;;
47113;SDS011;32867;51.556;6.832;2023-09-19T14:16:46;4.75;;;1.60;;
47113;SDS011;32867;51.556;6.832;2023-09-19T14:21:47;4.55;;;1.60;;
47113;SDS011;32867;51.556;6.832;2023-09-19T14:26:49;7.10;;;1.95;;
47113;SDS011;32867;51.556;6.832;2023-09-19T14:31:50;7.53;;;1.98;;
47113;SDS011;32867;51.556;6.832;2023-09-19T14:36:52;5.00;;;1.50;;
47113;SDS011;32867;51.556;6.832;2023-09-19T14:41:54;4.07;;;1.50;;
47113;SDS011;32867;51.556;6.832;2023-09-19T14:46:55;4.05;;;1.45;;
47113;SDS011;32867;51.556;6.832;2023-09-19T14:51:55;6.40;;;1.80;;
47113;SDS011;32867;51.556;6.832;2023-09-19T14:56:56;5.22;;;1.30;;
47113;SDS011;32867;51.556;6.832;2023-09-19T15:02:04;9.32;;;1.60;;
47113;SDS011;32867;51.556;6.832;2023-09-19T15:07:05;4.18;;;1.40;;
47113;SDS011;32867;51.556;6.832;2023-09-19T15:12:06;7.53;;;1.83;;
47113;SDS011;32867;51.556;6.832;2023-09-19T15:17:07;5.13;;;1.20;;
47113;SDS011;32867;51.556;6.832;2023-09-19T15:22:07;5.95;;;1.40;;
47113;SDS011;32867;51.556;6.832;2023-09-19T15:27:08;4.47;;;1.85;;
47113;SDS011;32867;51.556;6.832;2023-09-19T15:32:09;4.43;;;1.27;;
47113;SDS011;32867;51.556;6.832;2023-09-19T15:37:10;5.95;;;1.17;;
47113;SDS011;32867;51.556;6.832;2023-09-19T15:42:11;5.40;;;1.75;;
47113;SDS011;32867;51.556;6.832;2023-09-19T15:47:11;5.05;;;1.20;;
47113;SDS011;32867;51.556;6.832;2023-09-19T15:52:13;4.38;;;1.17;;
47113;SDS011;32867;51.556;6.832;2023-09-19T15:57:14;3.28;;;1.20;;
47113;SDS011;32867;51.556;6.832;2023-09-19T16:02:15;3.75;;;1.13;;
47113;SDS011;32867;51.556;6.832;2023-09-19T16:07:17;3.38;;;1.20;;
47113;SDS011;32867;51.556;6.832;2023-09-19T16:12:19;5.97;;;1.83;;
47113;SDS011;32867;51.556;6.832;2023-09-19T16:17:19;3.28;;;1.30;;
47113;SDS011;32867;51.556;6.832;2023-09-19T16:22:20;4.05;;;1.13;;
47113;SDS011;32867;51.556;6.832;2023-09-19T16:27:21;4.78;;;1.40;;
47113;SDS011;32867;51.556;6.832;2023-09-19T16:32:21;6.63;;;1.63;;
47113;SDS011;32867;51.556;6.832;2023-09-19T16:37:22;5.07;;;1.77;;
47113;SDS011;32867;51.556;6.832;2023-09-19T16:42:23;5.05;;;1.70;;
47113;SDS011;32867;51.556;6.832;2023-09-19T16:47:24;6.32;;;2.00;;
47113;SDS011;32867;51.556;6.832;2023-09-19T16:52:24;7.75;;;1.90;;
47113;SDS011;32867;51.556;6.832;2023-09-19T16:57:25;4.20;;;1.55;;
47113;SDS011;32867;51.556;6.832;2023-09-19T17:02:32;4.65;;;1.50;;
47113;SDS011;32867;51.556;6.832;2023-09-19T17:07:54;8.45;;;1.70;;
47113;SDS011;32867;51.556;6.832;2023-09-19T17:12:55;4.82;;;1.52;;
47113;SDS011;32867;51.556;6.832;2023-09-19T17:17:56;5.43;;;1.50;;
47113;SDS011;32867;51.556;6.832;2023-09-19T17:22:57;3.72;;;1.40;;
47113;SDS011;32867;51.556;6.832;2023-09-19T17:27:58;4.15;;;1.30;;
47113;SDS011;32867;51.556;6.832;2023-09-19T17:32:59;5.10;;;1.70;;
47113;SDS011;32867;51.556;6.832;2023-09-19T17:37:59;5.53;;;1.40;;
47113;SDS011;32867;51.556;6.832;2023-09-19T17:43:03;6.55;;;2.08;;
47113;SDS011;32867;51.556;6.832;2023-09-19T17:48:05;4.07;;;1.70;;
47113;SDS011;32867;51.556;6.832;2023-09-19T17:53:06;4.13;;;1.60;;
47113;SDS011;32867;51.556;6.832;2023-09-19T17:58:08;5.88;;;1.90;;
47113;SDS011;32867;51.556;6.832;2023-09-19T18:03:10;6.38;;;1.95;;
47113;SDS011;32867;51.556;6.832;2023-09-19T18:08:11;5.53;;;1.80;;
47113;SDS011;32867;51.556;6.832;2023-09-19T18:13:14;5.10;;;1.50;;
47113;SDS011;32867;51.556;6.832;2023-09-19T18:18:34;5.07;;;1.65;;
47113;SDS011;32867;51.556;6.832;2023-09-19T18:23:44;4.38;;;1.55;;
47113;SDS011;32867;51.556;6.832;2023-09-19T18:28:46;5.90;;;1.73;;
47113;SDS011;32867;51.556;6.832;2023-09-19T18:33:50;6.88;;;1.75;;
47113;SDS011;32867;51.556;6.832;2023-09-19T18:38:59;4.45;;;1.60;;
47113;SDS011;32867;51.556;6.832;2023-09-19T18:44:00;4.50;;;1.55;;
47113;SDS011;32867;51.556;6.832;2023-09-19T18:49:01;6.13;;;1.70;;
47113;SDS011;32867;51.556;6.832;2023-09-19T18:54:06;4.05;;;1.50;;
47113;SDS011;32867;51.556;6.832;2023-09-19T18:59:08;6.78;;;1.73;;
47113;SDS011;32867;51.556;6.832;2023-09-19T19:04:10;6.45;;;1.60;;
47113;SDS011;32867;51.556;6.832;2023-09-19T19:09:12;3.88;;;1.42;;
47113;SDS011;32867;51.556;6.832;2023-09-19T19:14:13;3.70;;;1.50;;
47113;SDS011;32867;51.556;6.832;2023-09-19T19:19:13;3.78;;;1.45;;
47113;SDS011;32867;51.556;6.832;2023-09-19T19:24:16;7.00;;;1.77;;
47113;SDS011;32867;51.556;6.832;2023-09-19T19:29:21;4.50;;;1.50;;
47113;SDS011;32867;51.556;6.832;2023-09-19T19:34:22;7.65;;;1.80;;
47113;SDS011;32867;51.556;6.832;2023-09-19T19:39:26;5.47;;;1.67;;
47113;SDS011;32867;51.556;6.832;2023-09-19T19:44:27;6.82;;;1.90;;
47113;SDS011;32867;51.556;6.832;2023-09-19T19:49:28;6.20;;;1.65;;
47113;SDS011;32867;51.556;6.832;2023-09-19T19:54:30;6.75;;;1.60;;
47113;SDS011;32867;51.556;6.832;2023-09-19T19:59:32;6.63;;;1.80;;
47113;SDS011;32867;51.556;6.832;2023-09-19T20:04:33;3.83;;;1.55;;
47113;SDS011;32867;51.556;6.832;2023-09-19T20:09:34;4.53;;;1.50;;
47113;SDS011;32867;51.556;6.832;2023-09-19T20:14:41;7.93;;;1.65;;
47113;SDS011;32867;51.556;6.832;2023-09-19T20:19:42;8.15;;;1.88;;
47113;SDS011;32867;51.556;6.832;2023-09-19T20:24:43;5.30;;;1.70;;
47113;SDS011;32867;51.556;6.832;2023-09-19T20:29:44;4.85;;;1.55;;
47113;SDS011;32867;51.556;6.832;2023-09-19T20:34:55;6.55;;;1.92;;
47113;SDS011;32867;51.556;6.832;2023-09-19T20:40:01;7.57;;;1.77;;
47113;SDS011;32867;51.556;6.832;2023-09-19T20:45:09;5.45;;;1.83;;
47113;SDS011;32867;51.556;6.832;2023-09-19T20:50:15;9.40;;;2.22;;
47113;SDS011;32867;51.556;6.832;2023-09-19T20:55:16;6.03;;;2.53;;
47113;SDS011;32867;51.556;6.832;2023-09-19T21:00:17;4.80;;;2.05;;
47113;SDS011;32867;51.556;6.832;2023-09-19T21:05:21;4.32;;;1.67;;
47113;SDS011;32867;51.556;6.832;2023-09-19T21:10:21;5.65;;;1.85;;
47113;SDS011;32867;51.556;6.832;2023-09-19T21:15:25;6.72;;;1.80;;
47113;SDS011;32867;51.556;6.832;2023-09-19T21:20:25;9.00;;;2.08;;
47113;SDS011;32867;51.556;6.832;2023-09-19T21:25:26;5.72;;;1.80;;
47113;SDS011;32867;51.556;6.832;2023-09-19T21:30:27;5.25;;;2.10;;
47113;SDS011;32867;51.556;6.832;2023-09-19T21:35:27;5.90;;;2.20;;
47113;SDS011;32867;51.556;6.832;2023-09-19T21:40:28;7.45;;;2.30;;
47113;SDS011;32867;51.556;6.832;2023-09-19T21:45:32;4.63;;;2.00;;
47113;SDS011;32867;51.556;6.832;2023-09-19T21:50:35;7.30;;;2.70;;
47113;SDS011;32867;51.556;6.832;2023-09-19T21:55:36;6.70;;;2.33;;
47113;SDS011;32867;51.556;6.832;2023-09-19T22:00:37;4.85;;;2.03;;
47113;SDS011;32867;51.556;6.832;2023-09-19T22:05:39;9.70;;;2.60;;
47113;SDS011;32867;51.556;6.832;2023-09-19T22:10:44;6.60;;;2.40;;
47113;SDS011;32867;51.556;6.832;2023-09-19T22:15:47;8.70;;;3.08;;
47113;SDS011;32867;51.556;6.832;2023-09-19T22:20:48;8.02;;;3.03;;
47113;SDS011;32867;51.556;6.832;2023-09-19T22:25:59;8.30;;;2.65;;
47113;SDS011;32867;51.556;6.832;2023-09-19T22:31:13;7.13;;;2.40;;
47113;SDS011;32867;51.556;6.832;2023-09-19T22:36:18;7.05;;;2.03;;
47113;SDS011;32867;51.556;6.832;2023-09-19T22:41:52;7.13;;;1.98;;
47113;SDS011;32867;51.556;6.832;2023-09-19T22:46:53;5.97;;;2.20;;
47113;SDS011;32867;51.556;6.832;2023-09-19T22:51:54;8.63;;;2.55;;
47113;SDS011;32867;51.556;6.832;2023-09-19T22:56:59;7.13;;;2.60;;
47113;SDS011;32867;51.556;6.832;2023-09-19T23:02:02;5.50;;;1.95;;
47113;SDS011;32867;51.556;6.832;2023-09-19T23:07:04;6.82;;;1.95;;
47113;SDS011;32867;51.556;6.832;2023-09-19T23:12:12;6.90;;;2.33;;
47113;SDS011;32867;51.556;6.832;2023-09-19T23:17:19;8.15;;;3.25;;
47113;SDS011;32867;51.556;6.832;2023-09-19T23:22:22;7.07;;;2.60;;
47113;SDS011;32867;51.556;6.832;2023-09-19T23:27:25;4.97;;;2.20;;
47113;SDS011;32867;51.556;6.832;2023-09-19T23:32:33;7.32;;;2.08;;
47113;SDS011;32867;51.556;6.832;2023-09-19T23:37:34;4.78;;;2.13;;
47113;SDS011;32867;51.556;6.832;2023-09-19T23:42:35;6.97;;;2.03;;
47113;SDS011;32867;51.556;6.832;2023-09-19T23:47:35;7.15;;;1.85;;
47113;SDS011;32867;51.556;6.832;2023-09-19T23:52:38;7.70;;;2.30;;
47113;SDS011;32867;51.556;6.832;2023-09-19T23:57:39;6.93;;;1.95;;
